createdAt,value
2022-11-12T00:01:12.511Z,16.85
2022-11-12T00:03:58.275Z,16.88
2022-11-12T00:06:44.056Z,17.03
2022-11-12T00:09:30.024Z,16.97
2022-11-12T00:12:15.548Z,17.01
2022-11-12T00:15:01.548Z,16.87
2022-11-12T00:17:47.186Z,17.03
2022-11-12T00:20:33.084Z,17.11
2022-11-12T00:23:18.646Z,16.96
2022-11-12T00:26:04.399Z,17.05
2022-11-12T00:28:50.309Z,17.00
2022-11-12T00:31:37.197Z,16.52
2022-11-12T00:34:22.683Z,16.84
2022-11-12T00:37:08.513Z,16.86
2022-11-12T00:39:54.366Z,16.95
2022-11-12T00:42:39.932Z,16.79
2022-11-12T00:45:25.657Z,16.94
2022-11-12T00:48:11.415Z,16.66
2022-11-12T00:51:00.997Z,16.83
2022-11-12T00:53:50.139Z,16.81
2022-11-12T00:56:35.846Z,16.72
2022-11-12T00:59:21.442Z,16.78
2022-11-12T01:02:07.186Z,16.26
2022-11-12T01:04:52.909Z,16.52
2022-11-12T01:07:38.774Z,16.68
2022-11-12T01:10:24.466Z,16.76
2022-11-12T01:13:10.275Z,16.73
2022-11-12T01:15:56.246Z,16.69
2022-11-12T01:18:42.157Z,16.87
2022-11-12T01:21:28.621Z,16.69
2022-11-12T01:24:14.082Z,16.16
2022-11-12T01:27:00.661Z,16.41
2022-11-12T01:29:46.484Z,16.17
2022-11-12T01:32:36.841Z,15.86
2022-11-12T01:35:22.548Z,15.05
2022-11-12T01:38:08.061Z,15.01
2022-11-12T01:40:53.914Z,15.08
2022-11-12T01:43:39.740Z,15.60
2022-11-12T01:46:27.492Z,15.51
2022-11-12T01:49:14.755Z,15.56
2022-11-12T01:52:09.916Z,15.84
2022-11-12T01:54:56.877Z,16.14
2022-11-12T01:57:45.690Z,16.17
2022-11-12T02:00:31.545Z,16.12
2022-11-12T02:03:21.183Z,15.68
2022-11-12T02:06:08.353Z,16.26
2022-11-12T02:08:53.952Z,16.31
2022-11-12T02:11:39.631Z,16.35
2022-11-12T02:14:25.660Z,16.62
2022-11-12T02:17:11.404Z,16.53
2022-11-12T02:19:58.746Z,16.72
2022-11-12T02:22:44.583Z,16.30
2022-11-12T02:25:30.223Z,16.32
2022-11-12T02:28:15.932Z,16.35
2022-11-12T02:31:01.690Z,16.54
2022-11-12T02:33:47.182Z,16.54
2022-11-12T02:36:32.790Z,16.04
2022-11-12T02:39:18.848Z,16.44
2022-11-12T02:42:04.307Z,16.35
2022-11-12T02:44:50.220Z,15.89
2022-11-12T02:47:35.737Z,15.93
2022-11-12T02:50:21.414Z,15.86
2022-11-12T02:53:07.243Z,14.80
2022-11-12T02:55:53.324Z,15.11
2022-11-12T02:58:38.900Z,15.22
2022-11-12T03:01:25.344Z,15.34
2022-11-12T03:04:11.016Z,15.24
2022-11-12T03:06:56.921Z,15.65
2022-11-12T03:09:42.663Z,15.22
2022-11-12T03:12:29.408Z,15.30
2022-11-12T03:15:15.065Z,15.35
2022-11-12T03:18:00.719Z,15.43
2022-11-12T03:20:46.160Z,15.40
2022-11-12T03:23:32.309Z,15.43
2022-11-12T03:26:17.836Z,14.54
2022-11-12T03:29:03.908Z,15.18
2022-11-12T03:31:49.495Z,15.05
2022-11-12T03:34:35.133Z,14.52
2022-11-12T03:37:21.150Z,15.19
2022-11-12T03:40:07.023Z,15.05
2022-11-12T03:42:52.963Z,15.52
2022-11-12T03:45:38.733Z,15.58
2022-11-12T03:48:24.843Z,14.97
2022-11-12T03:51:12.293Z,14.99
2022-11-12T03:53:58.010Z,15.25
2022-11-12T03:56:43.676Z,14.94
2022-11-12T03:59:29.386Z,15.32
2022-11-12T04:02:15.160Z,14.83
2022-11-12T04:05:19.583Z,14.91
2022-11-12T04:08:29.241Z,15.55
2022-11-12T04:11:15.807Z,16.13
2022-11-12T04:14:01.680Z,16.00
2022-11-12T04:17:05.600Z,15.92
2022-11-12T04:20:29.914Z,15.98
2022-11-12T04:23:15.288Z,16.32
2022-11-12T04:26:19.710Z,16.37
2022-11-12T04:29:24.019Z,16.28
2022-11-12T04:32:09.792Z,16.23
2022-11-12T04:34:55.582Z,16.15
2022-11-12T04:37:47.086Z,16.35
2022-11-12T04:40:51.853Z,16.24
2022-11-12T04:43:55.918Z,16.31
2022-11-12T04:46:41.637Z,16.29
2022-11-12T04:49:27.338Z,16.31
2022-11-12T04:52:12.978Z,16.31
2022-11-12T04:54:58.823Z,16.20
2022-11-12T04:57:44.325Z,16.34
2022-11-12T05:00:30.628Z,16.43
2022-11-12T05:03:18.705Z,16.48
2022-11-12T05:06:04.798Z,16.41
2022-11-12T05:08:50.417Z,16.46
2022-11-12T05:11:36.622Z,16.25
2022-11-12T05:14:22.213Z,16.29
2022-11-12T05:17:07.920Z,16.30
2022-11-12T05:19:53.722Z,16.44
2022-11-12T05:22:47.765Z,16.12
2022-11-12T05:25:40.124Z,16.10
2022-11-12T05:28:26.087Z,16.25
2022-11-12T05:31:12.307Z,16.28
2022-11-12T05:33:58.317Z,16.18
2022-11-12T05:36:44.004Z,15.86
2022-11-12T05:39:29.803Z,15.88
2022-11-12T05:42:15.647Z,15.91
2022-11-12T05:45:01.283Z,15.96
2022-11-12T05:47:47.624Z,15.70
2022-11-12T05:50:39.952Z,15.36
2022-11-12T05:53:37.421Z,15.14
2022-11-12T05:56:23.210Z,15.27
2022-11-12T05:59:09.531Z,15.63
2022-11-12T06:01:55.080Z,15.47
2022-11-12T06:04:40.807Z,15.78
2022-11-12T06:07:27.799Z,15.66
2022-11-12T06:10:19.117Z,15.70
2022-11-12T06:13:06.361Z,15.79
2022-11-12T06:15:52.324Z,15.80
2022-11-12T06:18:37.796Z,15.87
2022-11-12T06:21:23.649Z,16.02
2022-11-12T06:24:09.412Z,16.03
2022-11-12T06:26:55.147Z,16.19
2022-11-12T06:29:40.936Z,16.02
2022-11-12T06:32:26.879Z,16.12
2022-11-12T06:35:12.433Z,16.05
2022-11-12T06:37:57.813Z,16.08
2022-11-12T06:40:43.611Z,15.91
2022-11-12T06:43:30.265Z,16.20
2022-11-12T06:46:16.327Z,16.02
2022-11-12T06:49:01.912Z,14.92
2022-11-12T06:51:47.689Z,15.31
2022-11-12T06:54:33.310Z,15.86
2022-11-12T06:57:18.841Z,15.70
2022-11-12T07:00:04.824Z,16.04
2022-11-12T07:02:50.364Z,16.18
2022-11-12T07:05:37.477Z,15.88
2022-11-12T07:08:23.026Z,16.08
2022-11-12T07:11:08.713Z,16.00
2022-11-12T07:13:54.340Z,16.12
2022-11-12T07:16:40.234Z,15.74
2022-11-12T07:19:26.094Z,16.02
2022-11-12T07:22:11.912Z,16.40
2022-11-12T07:24:57.675Z,16.48
2022-11-12T07:27:43.449Z,15.94
2022-11-12T07:30:29.132Z,16.29
2022-11-12T07:33:15.065Z,16.35
2022-11-12T07:36:01.772Z,14.83
2022-11-12T07:38:47.798Z,16.19
2022-11-12T07:41:33.396Z,15.98
2022-11-12T07:44:18.718Z,16.09
2022-11-12T07:47:04.526Z,15.88
2022-11-12T07:49:50.094Z,16.02
2022-11-12T07:52:35.827Z,16.13
2022-11-12T07:55:21.749Z,15.58
2022-11-12T07:58:07.324Z,16.18
2022-11-12T08:00:53.199Z,16.22
2022-11-12T08:03:38.711Z,16.58
2022-11-12T08:06:24.267Z,16.27
2022-11-12T08:09:10.763Z,16.51
2022-11-12T08:11:56.356Z,16.44
2022-11-12T08:14:42.195Z,15.96
2022-11-12T08:17:27.857Z,15.28
2022-11-12T08:20:14.695Z,15.99
2022-11-12T08:23:00.655Z,16.32
2022-11-12T08:25:46.148Z,15.74
2022-11-12T08:28:32.343Z,16.06
2022-11-12T08:31:19.455Z,15.21
2022-11-12T08:34:12.197Z,14.70
2022-11-12T08:36:57.996Z,15.38
2022-11-12T08:39:43.828Z,15.25
2022-11-12T08:42:29.674Z,15.34
2022-11-12T08:45:15.128Z,14.61
2022-11-12T08:48:01.395Z,14.65
2022-11-12T08:50:46.991Z,15.27
2022-11-12T08:53:32.808Z,14.44
2022-11-12T08:56:18.706Z,13.86
2022-11-12T08:59:07.354Z,14.60
2022-11-12T09:01:53.312Z,14.69
2022-11-12T09:04:39.776Z,14.30
2022-11-12T09:10:31.049Z,14.77
2022-11-12T09:13:19.948Z,15.13
2022-11-12T09:16:06.212Z,14.99
2022-11-12T09:18:51.649Z,15.35
2022-11-12T09:21:37.433Z,15.35
2022-11-12T09:24:23.115Z,15.18
2022-11-12T09:27:08.933Z,15.50
2022-11-12T09:29:54.711Z,14.82
2022-11-12T09:32:40.405Z,15.26
2022-11-12T09:35:26.107Z,15.18
2022-11-12T09:38:11.901Z,15.15
2022-11-12T09:41:17.511Z,14.51
2022-11-12T09:44:04.479Z,15.08
2022-11-12T09:46:50.000Z,14.93
2022-11-12T09:49:39.412Z,14.26
2022-11-12T09:52:26.236Z,14.20
2022-11-12T09:55:12.233Z,15.42
2022-11-12T09:57:57.659Z,15.07
2022-11-12T10:00:47.711Z,14.47
2022-11-12T10:03:36.626Z,13.84
2022-11-12T10:06:22.772Z,15.16
2022-11-12T10:09:12.867Z,14.85
2022-11-12T10:12:31.450Z,15.90
2022-11-12T10:15:45.084Z,16.31
2022-11-12T10:18:33.655Z,14.80
2022-11-12T10:21:38.037Z,15.65
2022-11-12T10:24:24.658Z,15.78
2022-11-12T10:27:20.381Z,16.59
2022-11-12T10:30:06.800Z,17.35
2022-11-12T10:32:52.624Z,15.91
2022-11-12T10:35:38.129Z,16.44
2022-11-12T10:38:26.024Z,16.85
2022-11-12T10:41:19.673Z,16.81
2022-11-12T10:44:05.910Z,17.26
2022-11-12T10:46:51.448Z,16.95
2022-11-12T10:49:37.603Z,16.62
2022-11-12T10:52:23.961Z,17.56
2022-11-12T10:55:17.326Z,17.81
2022-11-12T10:58:03.004Z,17.95
2022-11-12T11:00:55.904Z,18.01
2022-11-12T11:03:45.777Z,18.01
2022-11-12T11:06:31.474Z,18.47
2022-11-12T11:09:17.765Z,17.47
2022-11-12T11:12:03.694Z,17.99
2022-11-12T11:14:49.560Z,18.86
2022-11-12T11:17:35.204Z,18.98
2022-11-12T11:20:24.633Z,18.88
2022-11-12T11:23:16.779Z,18.31
2022-11-12T11:26:06.984Z,18.15
2022-11-12T11:28:59.306Z,18.53
2022-11-12T11:31:49.351Z,18.91
2022-11-12T11:34:55.143Z,19.03
2022-11-12T11:37:54.504Z,17.85
2022-11-12T11:41:02.936Z,17.64
2022-11-12T11:43:52.840Z,17.99
2022-11-12T11:46:44.602Z,18.36
2022-11-12T11:49:30.815Z,18.30
2022-11-12T11:52:35.719Z,18.59
2022-11-12T11:55:28.338Z,18.23
2022-11-12T11:58:17.839Z,17.60
2022-11-12T12:01:09.367Z,18.63
2022-11-12T12:04:13.631Z,17.24
2022-11-12T12:07:17.990Z,17.81
2022-11-12T12:10:15.770Z,18.24
2022-11-12T12:13:17.258Z,17.95
2022-11-12T12:16:06.197Z,18.50
2022-11-12T12:19:15.013Z,18.52
2022-11-12T12:22:00.632Z,19.14
2022-11-12T12:24:53.856Z,19.37
2022-11-12T12:27:42.550Z,18.92
2022-11-12T12:30:27.913Z,19.00
2022-11-12T12:33:28.167Z,19.84
2022-11-12T12:36:17.505Z,18.79
2022-11-12T12:39:19.521Z,19.34
2022-11-12T12:42:05.152Z,18.99
2022-11-12T12:45:00.591Z,18.91
2022-11-12T12:47:46.427Z,18.57
2022-11-12T12:50:31.931Z,18.94
2022-11-12T12:53:18.399Z,18.81
2022-11-12T12:56:05.792Z,18.67
2022-11-12T12:58:51.467Z,17.99
2022-11-12T13:01:37.279Z,18.89
2022-11-12T13:04:41.658Z,18.77
2022-11-12T13:07:39.069Z,18.84
2022-11-12T13:10:33.920Z,18.39
2022-11-12T13:13:19.420Z,18.13
2022-11-12T13:16:04.971Z,18.80
2022-11-12T13:18:50.557Z,18.98
2022-11-12T13:21:36.274Z,18.56
2022-11-12T13:24:42.086Z,19.23
2022-11-12T13:27:44.315Z,19.19
2022-11-12T13:30:30.211Z,19.62
2022-11-12T13:33:20.774Z,18.60
2022-11-12T13:36:39.079Z,18.85
2022-11-12T13:39:24.640Z,19.29
2022-11-12T13:42:33.788Z,18.29
2022-11-12T13:45:20.939Z,17.74
2022-11-12T13:48:07.461Z,19.29
2022-11-12T13:50:55.323Z,18.85
2022-11-12T13:53:42.224Z,19.39
2022-11-12T13:56:32.241Z,19.41
2022-11-12T13:59:18.923Z,18.72
2022-11-12T14:02:05.374Z,18.99
2022-11-12T14:04:51.257Z,19.31
2022-11-12T14:07:55.328Z,19.42
2022-11-12T14:10:56.115Z,18.77
2022-11-12T14:13:41.739Z,19.13
2022-11-12T14:16:42.912Z,18.85
2022-11-12T14:19:47.452Z,17.66
2022-11-12T14:22:40.956Z,17.69
2022-11-12T14:25:27.073Z,18.05
2022-11-12T14:28:22.688Z,18.54
2022-11-12T14:31:12.213Z,18.84
2022-11-12T14:33:57.540Z,18.78
2022-11-12T14:36:43.574Z,17.92
2022-11-12T14:39:29.162Z,17.57
2022-11-12T14:42:14.625Z,18.10
2022-11-12T14:45:00.511Z,18.65
2022-11-12T14:47:46.324Z,19.13
2022-11-12T14:50:37.413Z,19.36
2022-11-12T14:53:28.037Z,19.59
2022-11-12T14:56:16.566Z,19.59
2022-11-12T14:59:02.245Z,19.43
2022-11-12T15:02:29.621Z,19.54
2022-11-12T15:05:12.049Z,18.62
2022-11-12T15:08:05.049Z,17.99
2022-11-12T15:10:51.520Z,18.62
2022-11-12T15:13:37.853Z,18.54
2022-11-12T15:16:24.258Z,17.24
2022-11-12T15:19:18.746Z,17.60
2022-11-12T15:22:04.445Z,18.05
2022-11-12T15:24:50.005Z,17.99
2022-11-12T15:27:36.259Z,18.46
2022-11-12T15:30:23.593Z,17.88
2022-11-12T15:33:16.178Z,17.75
2022-11-12T15:36:02.276Z,17.88
2022-11-12T15:38:48.856Z,18.75
2022-11-12T15:41:34.466Z,18.88
2022-11-12T15:44:20.250Z,19.30
2022-11-12T15:47:06.299Z,19.15
2022-11-12T15:49:52.687Z,19.18
2022-11-12T15:52:38.146Z,19.19
2022-11-12T15:55:24.016Z,19.27
2022-11-12T15:58:17.643Z,19.54
2022-11-12T16:01:03.966Z,19.70
2022-11-12T16:03:49.840Z,19.78
2022-11-12T16:06:35.664Z,19.50
2022-11-12T16:09:21.573Z,19.84
2022-11-12T16:12:09.193Z,19.97
2022-11-12T16:14:54.927Z,19.73
2022-11-12T16:17:40.694Z,19.92
2022-11-12T16:20:27.616Z,19.67
2022-11-12T16:23:13.394Z,19.79
2022-11-12T16:25:59.216Z,19.96
2022-11-12T16:28:44.925Z,19.90
2022-11-12T16:31:30.724Z,19.68
2022-11-12T16:34:16.561Z,19.64
2022-11-12T16:37:02.393Z,19.67
2022-11-12T16:39:48.247Z,19.43
2022-11-12T16:42:34.393Z,19.29
2022-11-12T16:45:20.904Z,19.45
2022-11-12T16:48:14.563Z,19.77
2022-11-12T16:51:00.787Z,19.78
2022-11-12T16:53:47.457Z,19.47
2022-11-12T16:56:32.956Z,19.61
2022-11-12T16:59:18.923Z,19.27
2022-11-12T17:02:04.488Z,19.21
2022-11-12T17:04:50.685Z,19.50
2022-11-12T17:07:36.649Z,19.15
2022-11-12T17:10:25.435Z,19.36
2022-11-12T17:13:13.117Z,19.29
2022-11-12T17:15:58.938Z,19.58
2022-11-12T17:18:44.478Z,19.67
2022-11-12T17:21:30.357Z,19.82
2022-11-12T17:24:16.059Z,19.64
2022-11-12T17:27:01.745Z,19.72
2022-11-12T17:29:47.793Z,19.63
2022-11-12T17:32:33.420Z,19.32
2022-11-12T17:35:38.934Z,19.60
2022-11-12T17:38:25.252Z,19.80
2022-11-12T17:41:11.651Z,19.63
2022-11-12T17:43:58.393Z,19.66
2022-11-12T17:46:45.084Z,19.97
2022-11-12T17:49:31.139Z,20.06
2022-11-12T17:52:16.983Z,20.15
2022-11-12T17:55:02.832Z,20.18
2022-11-12T17:57:48.734Z,20.13
2022-11-12T18:00:35.335Z,20.06
2022-11-12T18:03:21.068Z,19.96
2022-11-12T18:06:07.289Z,20.04
2022-11-12T18:08:56.550Z,20.01
2022-11-12T18:11:44.026Z,19.79
2022-11-12T18:14:29.739Z,19.84
2022-11-12T18:17:15.721Z,19.81
2022-11-12T18:20:04.811Z,19.86
2022-11-12T18:22:50.794Z,19.93
2022-11-12T18:25:38.324Z,19.83
2022-11-12T18:28:24.842Z,19.76
2022-11-12T18:31:11.023Z,19.62
2022-11-12T18:33:57.241Z,19.78
2022-11-12T18:36:43.463Z,19.62
2022-11-12T18:39:29.779Z,19.52
2022-11-12T18:42:19.906Z,19.57
2022-11-12T18:45:06.678Z,19.67
2022-11-12T18:47:53.261Z,19.66
2022-11-12T18:50:39.142Z,19.74
2022-11-12T18:53:26.067Z,19.71
2022-11-12T18:56:14.974Z,19.63
2022-11-12T18:59:00.856Z,19.80
2022-11-12T19:01:46.937Z,19.84
2022-11-12T19:04:32.874Z,19.83
2022-11-12T19:07:18.963Z,19.83
2022-11-12T19:10:14.727Z,19.76
2022-11-12T19:13:04.297Z,19.63
2022-11-12T19:15:50.628Z,19.66
2022-11-12T19:18:36.217Z,19.68
2022-11-12T19:21:22.980Z,19.63
2022-11-12T19:24:09.311Z,19.74
2022-11-12T19:26:55.861Z,19.76
2022-11-12T19:29:42.633Z,19.76
2022-11-12T19:32:28.750Z,19.58
2022-11-12T19:35:14.362Z,19.67
2022-11-12T19:38:00.122Z,19.77
2022-11-12T19:40:45.919Z,19.49
2022-11-12T19:43:32.238Z,19.42
2022-11-12T19:46:18.511Z,19.55
2022-11-12T19:49:04.599Z,19.62
2022-11-12T19:51:50.794Z,19.61
2022-11-12T19:54:36.697Z,19.66
2022-11-12T19:57:23.376Z,19.66
2022-11-12T20:00:11.386Z,19.69
2022-11-12T20:02:59.035Z,19.80
2022-11-12T20:05:45.155Z,19.80
2022-11-12T20:08:31.394Z,19.84
2022-11-12T20:11:20.476Z,19.74
2022-11-12T20:14:07.418Z,19.72
2022-11-12T20:16:53.447Z,19.72
2022-11-12T20:19:40.241Z,19.74
2022-11-12T20:22:31.677Z,19.83
2022-11-12T20:25:18.334Z,19.86
2022-11-12T20:28:03.807Z,19.90
2022-11-12T20:30:49.870Z,19.86
2022-11-12T20:33:40.836Z,19.88
2022-11-12T20:36:28.162Z,19.77
2022-11-12T20:39:14.416Z,19.81
2022-11-12T20:42:01.460Z,19.81
2022-11-12T20:44:47.675Z,19.70
2022-11-12T20:47:33.875Z,19.69
2022-11-12T20:50:19.913Z,19.47
2022-11-12T20:53:05.760Z,19.59
2022-11-12T20:55:51.152Z,19.63
2022-11-12T20:58:37.058Z,19.66
2022-11-12T21:01:23.187Z,19.68
2022-11-12T21:04:10.555Z,19.61
2022-11-12T21:07:02.291Z,19.64
2022-11-12T21:09:51.041Z,19.50
2022-11-12T21:12:37.743Z,19.55
2022-11-12T21:15:23.849Z,19.54
2022-11-12T21:18:09.894Z,19.50
2022-11-12T21:21:03.408Z,19.25
2022-11-12T21:23:50.468Z,19.18
2022-11-12T21:26:36.427Z,19.15
2022-11-12T21:29:23.041Z,19.26
2022-11-12T21:32:10.088Z,19.09
2022-11-12T21:34:55.989Z,19.11
2022-11-12T21:37:41.434Z,19.01
2022-11-12T21:40:27.256Z,19.00
2022-11-12T21:43:13.130Z,18.98
2022-11-12T21:45:59.033Z,18.89
2022-11-12T21:48:44.987Z,18.84
2022-11-12T21:51:31.642Z,18.88
2022-11-12T21:54:17.337Z,18.86
2022-11-12T21:57:03.051Z,18.64
2022-11-12T21:59:48.827Z,18.60
2022-11-12T22:02:34.585Z,18.64
2022-11-12T22:05:20.334Z,18.67
2022-11-12T22:08:06.133Z,18.69
2022-11-12T22:10:51.837Z,18.39
2022-11-12T22:13:37.689Z,18.42
2022-11-12T22:16:24.134Z,18.44
2022-11-12T22:19:11.284Z,18.35
2022-11-12T22:21:56.622Z,18.40
2022-11-12T22:24:42.244Z,18.24
2022-11-12T22:27:31.384Z,18.16
2022-11-12T22:30:17.116Z,18.10
2022-11-12T22:33:02.797Z,18.19
2022-11-12T22:35:48.589Z,18.18
2022-11-12T22:38:37.745Z,18.12
2022-11-12T22:41:24.391Z,18.04
2022-11-12T22:44:10.275Z,18.06
2022-11-12T22:46:56.968Z,17.98
2022-11-12T22:49:42.536Z,18.01
2022-11-12T22:52:28.262Z,18.08
2022-11-12T22:55:14.085Z,17.97
2022-11-12T22:58:00.372Z,17.88
2022-11-12T23:00:46.056Z,17.84
2022-11-12T23:03:32.150Z,17.82
2022-11-12T23:06:18.053Z,17.80
2022-11-12T23:09:03.705Z,17.93
2022-11-12T23:11:51.749Z,17.79
2022-11-12T23:14:37.728Z,17.72
2022-11-12T23:17:23.123Z,17.70
2022-11-12T23:20:09.514Z,17.67
2022-11-12T23:22:55.104Z,17.46
2022-11-12T23:25:40.758Z,17.49
2022-11-12T23:28:26.845Z,17.51
2022-11-12T23:31:14.006Z,17.60
2022-11-12T23:34:00.271Z,17.49
2022-11-12T23:36:46.370Z,17.57
2022-11-12T23:39:31.777Z,17.61
2022-11-12T23:42:17.484Z,17.68
2022-11-12T23:45:03.280Z,17.68
2022-11-12T23:47:48.867Z,17.70
2022-11-12T23:50:34.699Z,17.62
2022-11-12T23:53:20.311Z,17.61
2022-11-12T23:56:06.597Z,17.60
2022-11-12T23:58:53.380Z,17.65
